sensor_id;sensor_type;location;lat;lon;timestamp;P1;durP1;ratioP1;P2;durP2;ratioP2
43152;SDS011;28756;49.064;9.290;2022-07-23T00:02:00;5.53;;;4.53;;
43152;SDS011;28756;49.064;9.290;2022-07-23T00:04:26;5.57;;;4.35;;
43152;SDS011;28756;49.064;9.290;2022-07-23T00:06:51;5.13;;;4.25;;
43152;SDS011;28756;49.064;9.290;2022-07-23T00:09:17;5.97;;;4.20;;
43152;SDS011;28756;49.064;9.290;2022-07-23T00:11:43;4.85;;;4.40;;
43152;SDS011;28756;49.064;9.290;2022-07-23T00:14:08;4.53;;;4.10;;
43152;SDS011;28756;49.064;9.290;2022-07-23T00:16:34;5.28;;;4.28;;
43152;SDS011;28756;49.064;9.290;2022-07-23T00:19:00;4.65;;;4.15;;
43152;SDS011;28756;49.064;9.290;2022-07-23T00:21:27;4.85;;;4.38;;
43152;SDS011;28756;49.064;9.290;2022-07-23T00:23:53;9.63;;;4.45;;
43152;SDS011;28756;49.064;9.290;2022-07-23T00:26:18;4.85;;;4.07;;
43152;SDS011;28756;49.064;9.290;2022-07-23T00:28:44;4.65;;;3.95;;
43152;SDS011;28756;49.064;9.290;2022-07-23T00:31:10;4.50;;;4.10;;
43152;SDS011;28756;49.064;9.290;2022-07-23T00:33:36;5.20;;;4.20;;
43152;SDS011;28756;49.064;9.290;2022-07-23T00:36:01;5.45;;;4.35;;
43152;SDS011;28756;49.064;9.290;2022-07-23T00:38:28;4.50;;;3.97;;
43152;SDS011;28756;49.064;9.290;2022-07-23T00:40:53;4.40;;;4.00;;
43152;SDS011;28756;49.064;9.290;2022-07-23T00:43:20;4.75;;;4.00;;
43152;SDS011;28756;49.064;9.290;2022-07-23T00:45:46;3.92;;;3.58;;
43152;SDS011;28756;49.064;9.290;2022-07-23T00:48:12;4.57;;;4.00;;
43152;SDS011;28756;49.064;9.290;2022-07-23T00:50:38;4.80;;;4.40;;
43152;SDS011;28756;49.064;9.290;2022-07-23T00:53:04;3.90;;;3.47;;
43152;SDS011;28756;49.064;9.290;2022-07-23T00:55:30;4.28;;;3.88;;
43152;SDS011;28756;49.064;9.290;2022-07-23T00:57:56;3.72;;;3.38;;
43152;SDS011;28756;49.064;9.290;2022-07-23T01:00:23;4.07;;;3.67;;
43152;SDS011;28756;49.064;9.290;2022-07-23T01:02:49;5.95;;;3.35;;
43152;SDS011;28756;49.064;9.290;2022-07-23T01:05:15;3.90;;;3.45;;
43152;SDS011;28756;49.064;9.290;2022-07-23T01:07:42;3.92;;;3.50;;
43152;SDS011;28756;49.064;9.290;2022-07-23T01:10:08;5.20;;;3.63;;
43152;SDS011;28756;49.064;9.290;2022-07-23T01:12:53;4.05;;;3.35;;
43152;SDS011;28756;49.064;9.290;2022-07-23T01:15:19;3.55;;;3.10;;
43152;SDS011;28756;49.064;9.290;2022-07-23T01:17:45;4.22;;;3.53;;
43152;SDS011;28756;49.064;9.290;2022-07-23T01:20:11;5.15;;;3.72;;
43152;SDS011;28756;49.064;9.290;2022-07-23T01:22:36;5.60;;;3.65;;
43152;SDS011;28756;49.064;9.290;2022-07-23T01:25:02;4.85;;;3.63;;
43152;SDS011;28756;49.064;9.290;2022-07-23T01:27:28;3.60;;;3.30;;
43152;SDS011;28756;49.064;9.290;2022-07-23T01:29:54;4.50;;;3.50;;
43152;SDS011;28756;49.064;9.290;2022-07-23T01:32:22;4.00;;;3.60;;
43152;SDS011;28756;49.064;9.290;2022-07-23T01:34:47;3.33;;;3.00;;
43152;SDS011;28756;49.064;9.290;2022-07-23T01:37:13;3.97;;;3.55;;
43152;SDS011;28756;49.064;9.290;2022-07-23T01:39:39;4.15;;;3.28;;
43152;SDS011;28756;49.064;9.290;2022-07-23T01:42:05;3.90;;;3.55;;
43152;SDS011;28756;49.064;9.290;2022-07-23T01:44:30;3.70;;;3.40;;
43152;SDS011;28756;49.064;9.290;2022-07-23T01:46:56;3.75;;;3.22;;
43152;SDS011;28756;49.064;9.290;2022-07-23T01:49:22;3.58;;;3.28;;
43152;SDS011;28756;49.064;9.290;2022-07-23T01:51:48;3.75;;;3.20;;
43152;SDS011;28756;49.064;9.290;2022-07-23T01:54:26;3.22;;;2.92;;
43152;SDS011;28756;49.064;9.290;2022-07-23T01:56:58;3.45;;;3.15;;
43152;SDS011;28756;49.064;9.290;2022-07-23T01:59:25;3.38;;;2.90;;
43152;SDS011;28756;49.064;9.290;2022-07-23T02:01:52;3.78;;;3.13;;
43152;SDS011;28756;49.064;9.290;2022-07-23T02:04:18;3.50;;;3.20;;
43152;SDS011;28756;49.064;9.290;2022-07-23T02:06:46;4.18;;;3.28;;
43152;SDS011;28756;49.064;9.290;2022-07-23T02:09:12;3.63;;;3.33;;
43152;SDS011;28756;49.064;9.290;2022-07-23T02:11:38;3.88;;;2.83;;
43152;SDS011;28756;49.064;9.290;2022-07-23T02:14:03;3.58;;;3.28;;
43152;SDS011;28756;49.064;9.290;2022-07-23T02:16:29;3.58;;;3.28;;
43152;SDS011;28756;49.064;9.290;2022-07-23T02:18:55;3.25;;;2.95;;
43152;SDS011;28756;49.064;9.290;2022-07-23T02:21:21;4.20;;;3.65;;
43152;SDS011;28756;49.064;9.290;2022-07-23T02:23:47;4.38;;;3.47;;
43152;SDS011;28756;49.064;9.290;2022-07-23T02:26:13;4.05;;;3.45;;
43152;SDS011;28756;49.064;9.290;2022-07-23T02:28:38;4.53;;;3.05;;
43152;SDS011;28756;49.064;9.290;2022-07-23T02:31:04;3.33;;;3.03;;
43152;SDS011;28756;49.064;9.290;2022-07-23T02:33:31;5.28;;;2.90;;
43152;SDS011;28756;49.064;9.290;2022-07-23T02:35:57;3.58;;;3.28;;
43152;SDS011;28756;49.064;9.290;2022-07-23T02:38:23;3.50;;;3.20;;
43152;SDS011;28756;49.064;9.290;2022-07-23T02:40:49;3.90;;;3.20;;
43152;SDS011;28756;49.064;9.290;2022-07-23T02:43:15;3.63;;;3.33;;
43152;SDS011;28756;49.064;9.290;2022-07-23T02:45:41;3.40;;;3.10;;
43152;SDS011;28756;49.064;9.290;2022-07-23T02:48:06;5.03;;;3.60;;
43152;SDS011;28756;49.064;9.290;2022-07-23T02:50:32;4.20;;;3.50;;
43152;SDS011;28756;49.064;9.290;2022-07-23T02:52:58;3.70;;;3.40;;
43152;SDS011;28756;49.064;9.290;2022-07-23T02:55:24;4.78;;;3.92;;
43152;SDS011;28756;49.064;9.290;2022-07-23T02:57:50;4.13;;;3.72;;
43152;SDS011;28756;49.064;9.290;2022-07-23T03:00:15;4.38;;;3.97;;
43152;SDS011;28756;49.064;9.290;2022-07-23T03:02:41;4.07;;;3.67;;
43152;SDS011;28756;49.064;9.290;2022-07-23T03:05:07;4.40;;;4.00;;
43152;SDS011;28756;49.064;9.290;2022-07-23T03:07:33;3.58;;;3.28;;
43152;SDS011;28756;49.064;9.290;2022-07-23T03:10:11;4.80;;;3.95;;
43152;SDS011;28756;49.064;9.290;2022-07-23T03:12:37;4.18;;;3.50;;
43152;SDS011;28756;49.064;9.290;2022-07-23T03:15:03;5.40;;;4.15;;
43152;SDS011;28756;49.064;9.290;2022-07-23T03:17:30;4.15;;;3.75;;
43152;SDS011;28756;49.064;9.290;2022-07-23T03:19:55;4.22;;;3.75;;
43152;SDS011;28756;49.064;9.290;2022-07-23T03:22:21;3.60;;;3.30;;
43152;SDS011;28756;49.064;9.290;2022-07-23T03:24:47;4.32;;;3.63;;
43152;SDS011;28756;49.064;9.290;2022-07-23T03:27:18;3.78;;;3.38;;
43152;SDS011;28756;49.064;9.290;2022-07-23T03:29:48;4.10;;;3.53;;
43152;SDS011;28756;49.064;9.290;2022-07-23T03:32:15;4.70;;;4.00;;
43152;SDS011;28756;49.064;9.290;2022-07-23T03:34:41;3.50;;;3.20;;
43152;SDS011;28756;49.064;9.290;2022-07-23T03:37:07;4.68;;;4.03;;
43152;SDS011;28756;49.064;9.290;2022-07-23T03:39:32;4.55;;;3.88;;
43152;SDS011;28756;49.064;9.290;2022-07-23T03:41:58;3.75;;;3.42;;
43152;SDS011;28756;49.064;9.290;2022-07-23T03:44:24;4.15;;;3.75;;
43152;SDS011;28756;49.064;9.290;2022-07-23T03:46:50;4.22;;;3.83;;
43152;SDS011;28756;49.064;9.290;2022-07-23T03:49:15;4.30;;;3.80;;
43152;SDS011;28756;49.064;9.290;2022-07-23T03:51:41;5.25;;;4.30;;
43152;SDS011;28756;49.064;9.290;2022-07-23T03:54:07;4.18;;;3.78;;
43152;SDS011;28756;49.064;9.290;2022-07-23T03:56:33;4.15;;;3.75;;
43152;SDS011;28756;49.064;9.290;2022-07-23T03:58:59;3.90;;;3.60;;
43152;SDS011;28756;49.064;9.290;2022-07-23T04:01:24;4.93;;;3.90;;
43152;SDS011;28756;49.064;9.290;2022-07-23T04:03:50;3.88;;;3.58;;
43152;SDS011;28756;49.064;9.290;2022-07-23T04:06:16;3.72;;;3.38;;
43152;SDS011;28756;49.064;9.290;2022-07-23T04:08:42;4.32;;;3.92;;
43152;SDS011;28756;49.064;9.290;2022-07-23T04:11:08;4.18;;;3.15;;
43152;SDS011;28756;49.064;9.290;2022-07-23T04:13:34;4.10;;;3.70;;
43152;SDS011;28756;49.064;9.290;2022-07-23T04:16:00;5.15;;;3.88;;
43152;SDS011;28756;49.064;9.290;2022-07-23T04:18:25;3.80;;;3.50;;
43152;SDS011;28756;49.064;9.290;2022-07-23T04:20:51;4.45;;;3.72;;
43152;SDS011;28756;49.064;9.290;2022-07-23T04:23:17;5.47;;;3.70;;
43152;SDS011;28756;49.064;9.290;2022-07-23T04:25:44;4.10;;;3.67;;
43152;SDS011;28756;49.064;9.290;2022-07-23T04:28:10;4.55;;;3.85;;
43152;SDS011;28756;49.064;9.290;2022-07-23T04:30:35;4.00;;;3.47;;
43152;SDS011;28756;49.064;9.290;2022-07-23T04:33:01;4.75;;;3.75;;
43152;SDS011;28756;49.064;9.290;2022-07-23T04:35:30;4.07;;;3.63;;
43152;SDS011;28756;49.064;9.290;2022-07-23T04:37:56;5.03;;;4.15;;
43152;SDS011;28756;49.064;9.290;2022-07-23T04:40:25;5.35;;;4.65;;
43152;SDS011;28756;49.064;9.290;2022-07-23T04:42:52;5.57;;;4.00;;
43152;SDS011;28756;49.064;9.290;2022-07-23T04:45:18;4.82;;;3.90;;
43152;SDS011;28756;49.064;9.290;2022-07-23T04:47:47;4.00;;;3.60;;
43152;SDS011;28756;49.064;9.290;2022-07-23T04:50:12;3.70;;;3.40;;
43152;SDS011;28756;49.064;9.290;2022-07-23T04:52:42;4.57;;;3.58;;
43152;SDS011;28756;49.064;9.290;2022-07-23T04:55:08;5.30;;;3.45;;
43152;SDS011;28756;49.064;9.290;2022-07-23T04:57:34;6.63;;;4.22;;
43152;SDS011;28756;49.064;9.290;2022-07-23T04:59:59;4.75;;;4.35;;
43152;SDS011;28756;49.064;9.290;2022-07-23T05:02:25;4.90;;;4.40;;
43152;SDS011;28756;49.064;9.290;2022-07-23T05:04:51;4.63;;;3.97;;
43152;SDS011;28756;49.064;9.290;2022-07-23T05:07:17;7.68;;;4.28;;
43152;SDS011;28756;49.064;9.290;2022-07-23T05:09:42;4.70;;;4.13;;
43152;SDS011;28756;49.064;9.290;2022-07-23T05:12:08;6.50;;;4.05;;
43152;SDS011;28756;49.064;9.290;2022-07-23T05:14:34;5.78;;;3.75;;
43152;SDS011;28756;49.064;9.290;2022-07-23T05:16:59;4.55;;;3.80;;
43152;SDS011;28756;49.064;9.290;2022-07-23T05:19:25;5.38;;;4.40;;
43152;SDS011;28756;49.064;9.290;2022-07-23T05:21:51;5.15;;;4.13;;
43152;SDS011;28756;49.064;9.290;2022-07-23T05:24:17;4.95;;;4.53;;
43152;SDS011;28756;49.064;9.290;2022-07-23T05:26:42;5.60;;;3.90;;
43152;SDS011;28756;49.064;9.290;2022-07-23T05:29:08;4.65;;;3.88;;
43152;SDS011;28756;49.064;9.290;2022-07-23T05:31:34;3.80;;;3.50;;
43152;SDS011;28756;49.064;9.290;2022-07-23T05:34:00;5.05;;;3.95;;
43152;SDS011;28756;49.064;9.290;2022-07-23T05:36:25;5.00;;;4.60;;
43152;SDS011;28756;49.064;9.290;2022-07-23T05:38:51;6.05;;;4.70;;
43152;SDS011;28756;49.064;9.290;2022-07-23T05:41:17;7.50;;;4.70;;
43152;SDS011;28756;49.064;9.290;2022-07-23T05:43:43;6.10;;;4.93;;
43152;SDS011;28756;49.064;9.290;2022-07-23T05:46:09;4.85;;;4.45;;
43152;SDS011;28756;49.064;9.290;2022-07-23T05:48:35;6.38;;;4.60;;
43152;SDS011;28756;49.064;9.290;2022-07-23T05:51:00;6.03;;;5.32;;
43152;SDS011;28756;49.064;9.290;2022-07-23T05:53:28;6.13;;;5.10;;
43152;SDS011;28756;49.064;9.290;2022-07-23T05:55:54;5.90;;;5.30;;
43152;SDS011;28756;49.064;9.290;2022-07-23T05:58:20;5.57;;;5.03;;
43152;SDS011;28756;49.064;9.290;2022-07-23T06:00:46;5.70;;;5.10;;
43152;SDS011;28756;49.064;9.290;2022-07-23T06:03:12;6.45;;;5.20;;
43152;SDS011;28756;49.064;9.290;2022-07-23T06:05:38;6.15;;;5.22;;
43152;SDS011;28756;49.064;9.290;2022-07-23T06:08:03;6.35;;;5.10;;
43152;SDS011;28756;49.064;9.290;2022-07-23T06:10:29;8.30;;;5.57;;
43152;SDS011;28756;49.064;9.290;2022-07-23T06:12:55;5.93;;;5.10;;
43152;SDS011;28756;49.064;9.290;2022-07-23T06:15:20;6.25;;;5.65;;
43152;SDS011;28756;49.064;9.290;2022-07-23T06:17:46;6.20;;;5.40;;
43152;SDS011;28756;49.064;9.290;2022-07-23T06:20:12;6.85;;;5.78;;
43152;SDS011;28756;49.064;9.290;2022-07-23T06:22:38;8.40;;;5.40;;
43152;SDS011;28756;49.064;9.290;2022-07-23T06:25:04;6.20;;;5.07;;
43152;SDS011;28756;49.064;9.290;2022-07-23T06:27:31;6.15;;;4.90;;
43152;SDS011;28756;49.064;9.290;2022-07-23T06:29:57;5.47;;;4.97;;
43152;SDS011;28756;49.064;9.290;2022-07-23T06:32:23;6.60;;;5.28;;
43152;SDS011;28756;49.064;9.290;2022-07-23T06:34:48;6.05;;;5.30;;
43152;SDS011;28756;49.064;9.290;2022-07-23T06:37:14;7.38;;;5.70;;
43152;SDS011;28756;49.064;9.290;2022-07-23T06:39:40;5.82;;;5.22;;
43152;SDS011;28756;49.064;9.290;2022-07-23T06:42:06;5.20;;;4.70;;
43152;SDS011;28756;49.064;9.290;2022-07-23T06:44:32;5.97;;;4.97;;
43152;SDS011;28756;49.064;9.290;2022-07-23T06:46:57;6.60;;;5.00;;
43152;SDS011;28756;49.064;9.290;2022-07-23T06:49:23;6.82;;;5.35;;
43152;SDS011;28756;49.064;9.290;2022-07-23T06:51:49;5.40;;;4.90;;
43152;SDS011;28756;49.064;9.290;2022-07-23T06:54:15;6.50;;;5.22;;
43152;SDS011;28756;49.064;9.290;2022-07-23T06:56:40;5.35;;;4.85;;
43152;SDS011;28756;49.064;9.290;2022-07-23T06:59:07;7.18;;;4.95;;
43152;SDS011;28756;49.064;9.290;2022-07-23T07:01:33;9.02;;;5.38;;
43152;SDS011;28756;49.064;9.290;2022-07-23T07:03:59;8.43;;;6.00;;
43152;SDS011;28756;49.064;9.290;2022-07-23T07:06:24;6.55;;;5.80;;
43152;SDS011;28756;49.064;9.290;2022-07-23T07:08:50;7.43;;;5.57;;
43152;SDS011;28756;49.064;9.290;2022-07-23T07:11:16;7.78;;;5.43;;
43152;SDS011;28756;49.064;9.290;2022-07-23T07:13:42;7.43;;;5.63;;
43152;SDS011;28756;49.064;9.290;2022-07-23T07:16:07;5.32;;;4.82;;
43152;SDS011;28756;49.064;9.290;2022-07-23T07:18:33;5.63;;;5.13;;
43152;SDS011;28756;49.064;9.290;2022-07-23T07:20:59;6.20;;;5.18;;
43152;SDS011;28756;49.064;9.290;2022-07-23T07:23:25;5.93;;;5.32;;
43152;SDS011;28756;49.064;9.290;2022-07-23T07:25:50;6.22;;;5.25;;
43152;SDS011;28756;49.064;9.290;2022-07-23T07:28:16;7.90;;;6.18;;
43152;SDS011;28756;49.064;9.290;2022-07-23T07:30:42;5.82;;;5.22;;
43152;SDS011;28756;49.064;9.290;2022-07-23T07:33:08;5.65;;;4.72;;
43152;SDS011;28756;49.064;9.290;2022-07-23T07:35:33;5.70;;;4.88;;
43152;SDS011;28756;49.064;9.290;2022-07-23T07:37:59;5.72;;;5.03;;
43152;SDS011;28756;49.064;9.290;2022-07-23T07:40:25;5.53;;;4.97;;
43152;SDS011;28756;49.064;9.290;2022-07-23T07:42:52;6.30;;;5.15;;
43152;SDS011;28756;49.064;9.290;2022-07-23T07:45:19;5.40;;;4.90;;
43152;SDS011;28756;49.064;9.290;2022-07-23T07:47:46;5.93;;;5.32;;
43152;SDS011;28756;49.064;9.290;2022-07-23T07:50:12;7.35;;;5.28;;
43152;SDS011;28756;49.064;9.290;2022-07-23T07:52:38;7.55;;;5.97;;
43152;SDS011;28756;49.064;9.290;2022-07-23T07:55:04;6.10;;;5.20;;
43152;SDS011;28756;49.064;9.290;2022-07-23T07:57:33;6.22;;;5.43;;
43152;SDS011;28756;49.064;9.290;2022-07-23T07:59:59;5.72;;;5.15;;
43152;SDS011;28756;49.064;9.290;2022-07-23T08:02:26;6.55;;;5.40;;
43152;SDS011;28756;49.064;9.290;2022-07-23T08:04:52;4.97;;;4.47;;
43152;SDS011;28756;49.064;9.290;2022-07-23T08:07:18;5.43;;;4.93;;
43152;SDS011;28756;49.064;9.290;2022-07-23T08:09:44;6.32;;;5.35;;
43152;SDS011;28756;49.064;9.290;2022-07-23T08:12:10;6.85;;;4.93;;
43152;SDS011;28756;49.064;9.290;2022-07-23T08:14:35;5.10;;;4.60;;
43152;SDS011;28756;49.064;9.290;2022-07-23T08:17:01;5.35;;;4.85;;
43152;SDS011;28756;49.064;9.290;2022-07-23T08:19:27;6.00;;;4.80;;
43152;SDS011;28756;49.064;9.290;2022-07-23T08:21:56;6.10;;;5.50;;
43152;SDS011;28756;49.064;9.290;2022-07-23T08:24:22;6.10;;;5.50;;
43152;SDS011;28756;49.064;9.290;2022-07-23T08:26:50;5.30;;;4.80;;
43152;SDS011;28756;49.064;9.290;2022-07-23T08:29:16;5.95;;;5.18;;
43152;SDS011;28756;49.064;9.290;2022-07-23T08:31:42;5.90;;;5.00;;
43152;SDS011;28756;49.064;9.290;2022-07-23T08:34:08;5.30;;;4.80;;
43152;SDS011;28756;49.064;9.290;2022-07-23T08:36:33;6.93;;;5.20;;
43152;SDS011;28756;49.064;9.290;2022-07-23T08:38:59;5.78;;;5.18;;
43152;SDS011;28756;49.064;9.290;2022-07-23T08:41:27;5.35;;;4.85;;
43152;SDS011;28756;49.064;9.290;2022-07-23T08:43:53;5.65;;;5.03;;
43152;SDS011;28756;49.064;9.290;2022-07-23T08:46:19;6.28;;;5.50;;
43152;SDS011;28756;49.064;9.290;2022-07-23T08:48:47;6.75;;;5.88;;
43152;SDS011;28756;49.064;9.290;2022-07-23T08:51:14;7.25;;;6.28;;
43152;SDS011;28756;49.064;9.290;2022-07-23T08:53:40;5.68;;;5.13;;
43152;SDS011;28756;49.064;9.290;2022-07-23T08:56:06;6.30;;;5.57;;
43152;SDS011;28756;49.064;9.290;2022-07-23T08:58:33;7.68;;;5.45;;
43152;SDS011;28756;49.064;9.290;2022-07-23T09:01:00;6.43;;;5.82;;
43152;SDS011;28756;49.064;9.290;2022-07-23T09:03:27;5.80;;;5.20;;
43152;SDS011;28756;49.064;9.290;2022-07-23T09:05:58;6.07;;;5.32;;
43152;SDS011;28756;49.064;9.290;2022-07-23T09:08:47;6.40;;;5.32;;
43152;SDS011;28756;49.064;9.290;2022-07-23T09:11:14;5.97;;;5.38;;
43152;SDS011;28756;49.064;9.290;2022-07-23T09:13:46;7.40;;;6.68;;
43152;SDS011;28756;49.064;9.290;2022-07-23T09:18:56;7.78;;;6.60;;
43152;SDS011;28756;49.064;9.290;2022-07-23T09:21:31;7.75;;;6.95;;
43152;SDS011;28756;49.064;9.290;2022-07-23T09:24:00;8.40;;;6.68;;
43152;SDS011;28756;49.064;9.290;2022-07-23T09:26:33;8.93;;;7.47;;
43152;SDS011;28756;49.064;9.290;2022-07-23T09:29:00;10.88;;;8.13;;
43152;SDS011;28756;49.064;9.290;2022-07-23T09:31:31;7.78;;;7.00;;
43152;SDS011;28756;49.064;9.290;2022-07-23T09:34:17;10.07;;;6.95;;
43152;SDS011;28756;49.064;9.290;2022-07-23T09:36:46;9.35;;;6.90;;
43152;SDS011;28756;49.064;9.290;2022-07-23T09:39:14;9.25;;;7.20;;
43152;SDS011;28756;49.064;9.290;2022-07-23T09:41:49;6.78;;;5.97;;
43152;SDS011;28756;49.064;9.290;2022-07-23T09:44:15;8.85;;;6.55;;
43152;SDS011;28756;49.064;9.290;2022-07-23T09:46:45;7.40;;;6.70;;
43152;SDS011;28756;49.064;9.290;2022-07-23T09:51:46;5.72;;;5.20;;
43152;SDS011;28756;49.064;9.290;2022-07-23T09:54:25;6.03;;;4.93;;
43152;SDS011;28756;49.064;9.290;2022-07-23T09:57:09;5.45;;;4.95;;
43152;SDS011;28756;49.064;9.290;2022-07-23T09:59:40;6.07;;;5.32;;
43152;SDS011;28756;49.064;9.290;2022-07-23T10:02:08;6.40;;;5.80;;
43152;SDS011;28756;49.064;9.290;2022-07-23T10:04:37;5.63;;;4.80;;
43152;SDS011;28756;49.064;9.290;2022-07-23T10:07:06;6.63;;;6.03;;
43152;SDS011;28756;49.064;9.290;2022-07-23T10:09:36;5.65;;;5.15;;
43152;SDS011;28756;49.064;9.290;2022-07-23T10:12:04;5.30;;;4.47;;
43152;SDS011;28756;49.064;9.290;2022-07-23T10:14:46;5.05;;;4.57;;
43152;SDS011;28756;49.064;9.290;2022-07-23T10:17:13;5.93;;;5.30;;
43152;SDS011;28756;49.064;9.290;2022-07-23T10:19:39;6.93;;;5.03;;
43152;SDS011;28756;49.064;9.290;2022-07-23T10:24:40;5.03;;;4.57;;
43152;SDS011;28756;49.064;9.290;2022-07-23T10:30:59;5.50;;;4.28;;
43152;SDS011;28756;49.064;9.290;2022-07-23T10:34:02;5.82;;;4.80;;
43152;SDS011;28756;49.064;9.290;2022-07-23T10:36:52;4.78;;;4.20;;
43152;SDS011;28756;49.064;9.290;2022-07-23T10:39:31;4.63;;;4.22;;
43152;SDS011;28756;49.064;9.290;2022-07-23T10:42:20;5.43;;;4.53;;
43152;SDS011;28756;49.064;9.290;2022-07-23T10:44:45;5.35;;;4.85;;
43152;SDS011;28756;49.064;9.290;2022-07-23T10:47:21;5.90;;;5.30;;
43152;SDS011;28756;49.064;9.290;2022-07-23T10:50:25;5.50;;;4.43;;
43152;SDS011;28756;49.064;9.290;2022-07-23T10:53:15;6.07;;;4.90;;
43152;SDS011;28756;49.064;9.290;2022-07-23T10:58:18;4.75;;;4.32;;
43152;SDS011;28756;49.064;9.290;2022-07-23T11:01:44;5.28;;;4.75;;
43152;SDS011;28756;49.064;9.290;2022-07-23T11:04:04;4.65;;;4.25;;
43152;SDS011;28756;49.064;9.290;2022-07-23T11:09:26;4.18;;;3.88;;
43152;SDS011;28756;49.064;9.290;2022-07-23T11:18:16;3.70;;;3.40;;
43152;SDS011;28756;49.064;9.290;2022-07-23T11:20:21;3.65;;;3.30;;
43152;SDS011;28756;49.064;9.290;2022-07-23T11:22:49;3.88;;;3.58;;
43152;SDS011;28756;49.064;9.290;2022-07-23T11:27:49;4.47;;;4.05;;
43152;SDS011;28756;49.064;9.290;2022-07-23T11:32:51;5.18;;;4.40;;
43152;SDS011;28756;49.064;9.290;2022-07-23T11:35:45;4.22;;;3.83;;
43152;SDS011;28756;49.064;9.290;2022-07-23T11:38:19;4.60;;;4.20;;
43152;SDS011;28756;49.064;9.290;2022-07-23T11:40:47;5.07;;;4.50;;
43152;SDS011;28756;49.064;9.290;2022-07-23T11:43:17;4.75;;;4.35;;
43152;SDS011;28756;49.064;9.290;2022-07-23T11:45:45;5.70;;;4.75;;
43152;SDS011;28756;49.064;9.290;2022-07-23T11:48:19;5.50;;;4.38;;
43152;SDS011;28756;49.064;9.290;2022-07-23T11:50:51;4.50;;;4.10;;
43152;SDS011;28756;49.064;9.290;2022-07-23T11:53:26;4.32;;;3.92;;
43152;SDS011;28756;49.064;9.290;2022-07-23T11:55:54;5.65;;;4.88;;
43152;SDS011;28756;49.064;9.290;2022-07-23T11:58:31;5.38;;;4.70;;
43152;SDS011;28756;49.064;9.290;2022-07-23T12:00:57;5.03;;;4.53;;
43152;SDS011;28756;49.064;9.290;2022-07-23T12:03:23;6.03;;;5.03;;
43152;SDS011;28756;49.064;9.290;2022-07-23T12:05:49;5.07;;;4.68;;
43152;SDS011;28756;49.064;9.290;2022-07-23T12:08:22;5.43;;;4.82;;
43152;SDS011;28756;49.064;9.290;2022-07-23T12:10:48;5.13;;;4.72;;
43152;SDS011;28756;49.064;9.290;2022-07-23T12:13:16;5.20;;;4.70;;
43152;SDS011;28756;49.064;9.290;2022-07-23T12:15:46;5.53;;;5.03;;
43152;SDS011;28756;49.064;9.290;2022-07-23T12:18:16;5.25;;;4.85;;
43152;SDS011;28756;49.064;9.290;2022-07-23T12:20:48;5.30;;;4.80;;
43152;SDS011;28756;49.064;9.290;2022-07-23T12:23:22;6.32;;;4.88;;
43152;SDS011;28756;49.064;9.290;2022-07-23T12:25:50;7.22;;;4.65;;
43152;SDS011;28756;49.064;9.290;2022-07-23T12:30:52;4.80;;;4.40;;
43152;SDS011;28756;49.064;9.290;2022-07-23T12:33:21;4.72;;;4.10;;
43152;SDS011;28756;49.064;9.290;2022-07-23T12:35:50;4.88;;;4.40;;
43152;SDS011;28756;49.064;9.290;2022-07-23T12:38:18;6.10;;;4.30;;
43152;SDS011;28756;49.064;9.290;2022-07-23T12:40:50;4.80;;;4.28;;
43152;SDS011;28756;49.064;9.290;2022-07-23T12:43:20;6.82;;;4.53;;
43152;SDS011;28756;49.064;9.290;2022-07-23T12:48:27;4.32;;;3.92;;
43152;SDS011;28756;49.064;9.290;2022-07-23T12:50:56;5.15;;;4.65;;
43152;SDS011;28756;49.064;9.290;2022-07-23T13:04:05;5.03;;;4.40;;
43152;SDS011;28756;49.064;9.290;2022-07-23T13:06:33;4.63;;;4.20;;
43152;SDS011;28756;49.064;9.290;2022-07-23T13:09:11;4.45;;;4.00;;
43152;SDS011;28756;49.064;9.290;2022-07-23T13:11:39;4.65;;;4.25;;
43152;SDS011;28756;49.064;9.290;2022-07-23T13:14:05;4.22;;;3.90;;
43152;SDS011;28756;49.064;9.290;2022-07-23T13:16:32;4.57;;;4.13;;
43152;SDS011;28756;49.064;9.290;2022-07-23T13:18:59;4.85;;;4.30;;
43152;SDS011;28756;49.064;9.290;2022-07-23T13:21:25;4.88;;;4.47;;
43152;SDS011;28756;49.064;9.290;2022-07-23T13:23:54;4.78;;;4.38;;
43152;SDS011;28756;49.064;9.290;2022-07-23T13:26:21;4.93;;;4.43;;
43152;SDS011;28756;49.064;9.290;2022-07-23T13:28:47;4.97;;;4.32;;
43152;SDS011;28756;49.064;9.290;2022-07-23T13:31:13;5.05;;;4.55;;
43152;SDS011;28756;49.064;9.290;2022-07-23T13:33:39;5.47;;;4.78;;
43152;SDS011;28756;49.064;9.290;2022-07-23T13:36:05;4.95;;;4.25;;
43152;SDS011;28756;49.064;9.290;2022-07-23T13:38:31;5.00;;;4.47;;
43152;SDS011;28756;49.064;9.290;2022-07-23T13:40:58;5.00;;;4.22;;
43152;SDS011;28756;49.064;9.290;2022-07-23T13:43:28;5.95;;;4.32;;
43152;SDS011;28756;49.064;9.290;2022-07-23T13:45:55;4.60;;;4.20;;
43152;SDS011;28756;49.064;9.290;2022-07-23T13:48:21;4.30;;;3.90;;
43152;SDS011;28756;49.064;9.290;2022-07-23T13:50:48;4.85;;;4.38;;
43152;SDS011;28756;49.064;9.290;2022-07-23T13:53:16;4.28;;;3.88;;
43152;SDS011;28756;49.064;9.290;2022-07-23T13:55:48;4.82;;;4.35;;
43152;SDS011;28756;49.064;9.290;2022-07-23T13:58:17;4.93;;;4.53;;
43152;SDS011;28756;49.064;9.290;2022-07-23T14:00:49;4.55;;;4.15;;
43152;SDS011;28756;49.064;9.290;2022-07-23T14:03:17;5.07;;;4.28;;
43152;SDS011;28756;49.064;9.290;2022-07-23T14:05:44;4.82;;;4.32;;
43152;SDS011;28756;49.064;9.290;2022-07-23T14:08:10;5.50;;;3.88;;
43152;SDS011;28756;49.064;9.290;2022-07-23T14:10:36;4.32;;;3.92;;
43152;SDS011;28756;49.064;9.290;2022-07-23T14:13:02;4.90;;;4.30;;
43152;SDS011;28756;49.064;9.290;2022-07-23T14:15:29;5.30;;;4.80;;
43152;SDS011;28756;49.064;9.290;2022-07-23T14:17:57;5.57;;;4.40;;
43152;SDS011;28756;49.064;9.290;2022-07-23T14:20:23;6.03;;;4.75;;
43152;SDS011;28756;49.064;9.290;2022-07-23T14:22:50;7.30;;;5.10;;
43152;SDS011;28756;49.064;9.290;2022-07-23T14:25:16;5.07;;;4.57;;
43152;SDS011;28756;49.064;9.290;2022-07-23T14:27:42;4.88;;;4.35;;
43152;SDS011;28756;49.064;9.290;2022-07-23T14:30:10;7.13;;;4.95;;
43152;SDS011;28756;49.064;9.290;2022-07-23T14:32:36;5.43;;;4.57;;
43152;SDS011;28756;49.064;9.290;2022-07-23T14:35:03;5.10;;;4.40;;
43152;SDS011;28756;49.064;9.290;2022-07-23T14:37:30;4.80;;;4.15;;
43152;SDS011;28756;49.064;9.290;2022-07-23T14:39:56;7.10;;;4.80;;
43152;SDS011;28756;49.064;9.290;2022-07-23T14:42:22;5.93;;;4.85;;
43152;SDS011;28756;49.064;9.290;2022-07-23T14:44:48;5.85;;;5.20;;
43152;SDS011;28756;49.064;9.290;2022-07-23T14:47:14;5.05;;;4.55;;
43152;SDS011;28756;49.064;9.290;2022-07-23T14:49:40;6.68;;;5.05;;
43152;SDS011;28756;49.064;9.290;2022-07-23T14:52:06;5.15;;;4.70;;
43152;SDS011;28756;49.064;9.290;2022-07-23T14:54:32;6.55;;;5.38;;
43152;SDS011;28756;49.064;9.290;2022-07-23T14:56:59;5.40;;;4.90;;
43152;SDS011;28756;49.064;9.290;2022-07-23T14:59:27;5.15;;;4.68;;
43152;SDS011;28756;49.064;9.290;2022-07-23T15:01:55;5.40;;;4.90;;
43152;SDS011;28756;49.064;9.290;2022-07-23T15:04:21;5.72;;;5.13;;
43152;SDS011;28756;49.064;9.290;2022-07-23T15:06:47;8.00;;;5.03;;
43152;SDS011;28756;49.064;9.290;2022-07-23T15:09:13;5.40;;;4.90;;
43152;SDS011;28756;49.064;9.290;2022-07-23T15:11:39;5.20;;;4.75;;
43152;SDS011;28756;49.064;9.290;2022-07-23T15:14:06;5.80;;;4.97;;
43152;SDS011;28756;49.064;9.290;2022-07-23T15:16:33;5.10;;;4.70;;
43152;SDS011;28756;49.064;9.290;2022-07-23T15:19:00;5.80;;;5.00;;
43152;SDS011;28756;49.064;9.290;2022-07-23T15:21:26;5.90;;;5.30;;
43152;SDS011;28756;49.064;9.290;2022-07-23T15:23:54;9.80;;;5.80;;
43152;SDS011;28756;49.064;9.290;2022-07-23T15:26:23;5.75;;;5.25;;
43152;SDS011;28756;49.064;9.290;2022-07-23T15:28:54;5.50;;;5.05;;
43152;SDS011;28756;49.064;9.290;2022-07-23T15:31:20;7.40;;;5.07;;
43152;SDS011;28756;49.064;9.290;2022-07-23T15:33:46;7.18;;;5.43;;
43152;SDS011;28756;49.064;9.290;2022-07-23T15:36:12;6.38;;;5.10;;